createdAt,value
2023-05-15T00:00:04.041Z,99785.20
2023-05-15T00:03:05.891Z,99788.00
2023-05-15T00:05:41.450Z,99781.20
2023-05-15T00:08:14.886Z,99776.60
2023-05-15T00:11:01.020Z,99772.60
2023-05-15T00:13:35.570Z,99758.00
2023-05-15T00:16:10.151Z,99753.80
2023-05-15T00:18:43.619Z,99752.60
2023-05-15T00:21:17.111Z,99746.40
2023-05-15T00:23:50.493Z,99751.40
2023-05-15T00:26:26.233Z,99746.00
2023-05-15T00:28:59.539Z,99739.40
2023-05-15T00:31:33.292Z,99731.00
2023-05-15T00:34:06.740Z,99731.20
2023-05-15T00:36:39.948Z,99725.00
2023-05-15T00:39:13.445Z,99718.00
2023-05-15T00:41:49.700Z,99709.40
2023-05-15T00:44:24.626Z,99699.40
2023-05-15T00:47:00.498Z,99694.80
2023-05-15T00:49:37.388Z,99697.40
2023-05-15T00:52:11.985Z,99686.80
2023-05-15T00:54:45.265Z,99676.80
2023-05-15T00:57:20.044Z,99664.20
2023-05-15T00:59:55.658Z,99661.40
2023-05-15T01:06:48.972Z,99663.80
2023-05-15T01:09:24.814Z,99660.60
2023-05-15T01:12:02.093Z,99661.60
2023-05-15T01:14:35.266Z,99652.40
2023-05-15T01:17:08.645Z,99647.20
2023-05-15T01:19:43.642Z,99644.00
2023-05-15T01:22:42.301Z,99650.40
2023-05-15T01:26:02.595Z,99639.80
2023-05-15T01:28:47.158Z,99641.40
2023-05-15T01:31:25.634Z,99644.80
2023-05-15T01:34:04.006Z,99642.80
2023-05-15T01:36:57.859Z,99630.20
2023-05-15T01:39:36.883Z,99636.40
2023-05-15T01:42:18.203Z,99639.60
2023-05-15T01:44:57.914Z,99640.60
2023-05-15T01:47:39.390Z,99629.80
2023-05-15T01:50:18.326Z,99626.20
2023-05-15T01:52:57.636Z,99628.80
2023-05-15T01:55:34.532Z,99624.40
2023-05-15T01:58:10.093Z,99621.00
2023-05-15T02:00:45.161Z,99616.60
2023-05-15T02:03:19.740Z,99611.80
2023-05-15T02:05:56.661Z,99603.80
2023-05-15T02:08:30.785Z,99602.40
2023-05-15T02:11:05.793Z,99591.80
2023-05-15T02:13:39.573Z,99588.80
2023-05-15T02:16:13.134Z,99586.40
2023-05-15T02:18:47.205Z,99581.00
2023-05-15T02:21:20.593Z,99581.80
2023-05-15T02:23:53.735Z,99578.80
2023-05-15T02:26:44.478Z,99576.80
2023-05-15T02:29:32.416Z,99566.80
2023-05-15T02:32:18.508Z,99559.40
2023-05-15T02:35:05.238Z,99551.40
2023-05-15T02:37:47.998Z,99548.80
2023-05-15T02:40:24.707Z,99538.60
2023-05-15T02:42:58.851Z,99536.80
2023-05-15T02:45:35.457Z,99530.20
2023-05-15T02:48:10.592Z,99523.00
2023-05-15T02:50:44.136Z,99517.60
2023-05-15T02:53:17.758Z,99512.00
2023-05-15T02:55:51.539Z,99507.40
2023-05-15T02:58:24.937Z,99495.00
2023-05-15T03:00:58.496Z,99489.80
2023-05-15T03:03:31.846Z,99484.80
2023-05-15T03:06:05.649Z,99483.80
2023-05-15T03:08:38.873Z,99479.20
2023-05-15T03:11:12.225Z,99476.80
2023-05-15T03:13:45.518Z,99469.80
2023-05-15T03:16:18.837Z,99472.00
2023-05-15T03:18:52.148Z,99467.40
2023-05-15T03:21:26.048Z,99461.20
2023-05-15T03:23:59.279Z,99457.80
2023-05-15T03:26:32.605Z,99447.60
2023-05-15T03:29:06.304Z,99437.60
2023-05-15T03:31:39.767Z,99444.40
2023-05-15T03:34:13.094Z,99447.80
2023-05-15T03:36:46.234Z,99441.20
2023-05-15T03:39:19.552Z,99445.00
2023-05-15T03:41:52.777Z,99433.40
2023-05-15T03:44:29.770Z,99434.60
2023-05-15T03:47:03.993Z,99435.60
2023-05-15T03:49:37.519Z,99426.40
2023-05-15T03:52:12.262Z,99419.00
2023-05-15T03:54:46.546Z,99428.00
2023-05-15T03:57:19.838Z,99426.80
2023-05-15T03:59:53.227Z,99421.40
2023-05-15T04:02:26.706Z,99414.40
2023-05-15T04:05:00.040Z,99406.20
2023-05-15T04:07:34.428Z,99409.60
2023-05-15T04:10:09.593Z,99414.40
2023-05-15T04:12:42.865Z,99417.40
2023-05-15T04:15:22.617Z,99412.20
2023-05-15T04:17:57.514Z,99413.60
2023-05-15T04:20:31.236Z,99411.40
2023-05-15T04:23:05.797Z,99404.60
2023-05-15T04:25:39.793Z,99398.00
2023-05-15T04:28:13.019Z,99401.20
2023-05-15T04:30:46.268Z,99404.20
2023-05-15T04:33:19.549Z,99397.20
2023-05-15T04:35:53.197Z,99400.60
2023-05-15T04:38:27.065Z,99406.00
2023-05-15T04:41:00.270Z,99397.80
2023-05-15T04:43:33.554Z,99394.60
2023-05-15T04:46:07.901Z,99396.60
2023-05-15T04:48:41.082Z,99390.80
2023-05-15T04:51:14.351Z,99387.40
2023-05-15T04:53:47.643Z,99386.80
2023-05-15T04:56:21.662Z,99389.40
2023-05-15T04:58:54.853Z,99382.80
2023-05-15T05:01:28.996Z,99382.20
2023-05-15T05:04:02.285Z,99375.60
2023-05-15T05:06:35.650Z,99374.80
2023-05-15T05:09:10.828Z,99368.60
2023-05-15T05:11:44.774Z,99372.00
2023-05-15T05:14:18.612Z,99369.60
2023-05-15T05:16:51.820Z,99365.60
2023-05-15T05:19:26.141Z,99367.00
2023-05-15T05:22:01.971Z,99362.60
2023-05-15T05:24:37.522Z,99354.60
2023-05-15T05:27:11.052Z,99350.00
2023-05-15T05:29:44.308Z,99348.40
2023-05-15T05:32:17.842Z,99343.40
2023-05-15T05:34:51.056Z,99337.40
2023-05-15T05:37:24.310Z,99336.60
2023-05-15T05:39:57.548Z,99336.00
2023-05-15T05:42:30.864Z,99334.80
2023-05-15T05:45:04.178Z,99335.60
2023-05-15T05:47:37.511Z,99334.40
2023-05-15T05:50:13.031Z,99334.40
2023-05-15T05:52:46.190Z,99323.40
2023-05-15T05:55:19.909Z,99316.00
2023-05-15T05:57:53.570Z,99313.20
2023-05-15T06:00:27.536Z,99314.60
2023-05-15T06:03:02.857Z,99312.40
2023-05-15T06:05:36.159Z,99310.00
2023-05-15T06:08:10.177Z,99301.40
2023-05-15T06:10:46.233Z,99295.00
2023-05-15T06:13:21.583Z,99284.60
2023-05-15T06:15:55.388Z,99282.60
2023-05-15T06:18:29.234Z,99284.20
2023-05-15T06:21:02.494Z,99283.40
2023-05-15T06:23:36.015Z,99281.20
2023-05-15T06:26:09.552Z,99281.40
2023-05-15T06:28:42.872Z,99276.60
2023-05-15T06:31:17.582Z,99276.40
2023-05-15T06:33:51.005Z,99278.60
2023-05-15T06:36:24.144Z,99275.80
2023-05-15T06:38:57.438Z,99272.80
2023-05-15T06:41:30.688Z,99273.20
2023-05-15T06:44:03.828Z,99270.40
2023-05-15T06:46:37.123Z,99267.40
2023-05-15T06:49:10.460Z,99268.60
2023-05-15T06:51:43.712Z,99267.20
2023-05-15T06:54:16.923Z,99262.60
2023-05-15T06:56:50.305Z,99264.20
2023-05-15T06:59:23.501Z,99257.80
2023-05-15T07:01:56.929Z,99253.20
2023-05-15T07:04:31.161Z,99253.40
2023-05-15T07:07:04.448Z,99251.00
2023-05-15T07:09:37.630Z,99253.60
2023-05-15T07:12:12.303Z,99248.60
2023-05-15T07:14:46.223Z,99249.20
2023-05-15T07:17:20.063Z,99245.00
2023-05-15T07:19:53.542Z,99241.80
2023-05-15T07:22:28.027Z,99244.20
2023-05-15T07:25:02.023Z,99236.60
2023-05-15T07:27:35.192Z,99238.00
2023-05-15T07:30:10.871Z,99238.80
2023-05-15T07:32:44.361Z,99234.40
2023-05-15T07:35:18.561Z,99238.80
2023-05-15T07:37:52.375Z,99235.20
2023-05-15T07:40:26.107Z,99232.60
2023-05-15T07:42:59.567Z,99239.00
2023-05-15T07:45:36.333Z,99238.60
2023-05-15T07:48:20.854Z,99235.60
2023-05-15T07:50:55.312Z,99237.40
2023-05-15T07:53:28.651Z,99231.00
2023-05-15T07:56:01.825Z,99228.20
2023-05-15T07:58:37.961Z,99226.00
2023-05-15T08:01:11.644Z,99222.20
2023-05-15T08:03:44.910Z,99214.20
2023-05-15T08:06:18.545Z,99210.40
2023-05-15T08:08:51.866Z,99214.40
2023-05-15T08:11:25.166Z,99209.40
2023-05-15T08:13:58.534Z,99203.80
2023-05-15T08:16:32.310Z,99212.80
2023-05-15T08:19:07.967Z,99205.40
2023-05-15T08:21:41.525Z,99203.60
2023-05-15T08:24:14.902Z,99204.80
2023-05-15T08:26:49.256Z,99201.60
2023-05-15T08:29:22.514Z,99193.20
2023-05-15T08:31:56.314Z,99200.40
2023-05-15T08:34:30.057Z,99202.60
2023-05-15T08:37:04.151Z,99205.20
2023-05-15T08:39:38.453Z,99207.80
2023-05-15T08:42:21.088Z,99213.00
2023-05-15T08:44:55.188Z,99211.60
2023-05-15T08:47:30.489Z,99204.00
2023-05-15T08:50:12.394Z,99206.40
2023-05-15T08:52:47.772Z,99203.20
2023-05-15T08:55:24.257Z,99195.60
2023-05-15T08:58:00.156Z,99198.80
2023-05-15T09:00:35.076Z,99199.80
2023-05-15T09:03:14.895Z,99204.80
2023-05-15T09:05:52.331Z,99206.60
2023-05-15T09:08:28.292Z,99206.00
2023-05-15T09:11:03.630Z,99208.40
2023-05-15T09:13:37.129Z,99211.20
2023-05-15T09:16:11.641Z,99210.40
2023-05-15T09:18:50.213Z,99205.00
2023-05-15T09:21:32.256Z,99206.20
2023-05-15T09:24:29.344Z,99206.40
2023-05-15T09:27:08.039Z,99209.80
2023-05-15T09:29:42.253Z,99210.40
2023-05-15T09:32:19.409Z,99209.40
2023-05-15T09:34:55.693Z,99207.80
2023-05-15T09:37:36.536Z,99209.60
2023-05-15T09:40:15.845Z,99214.60
2023-05-15T09:42:55.536Z,99209.40
2023-05-15T09:45:30.566Z,99208.80
2023-05-15T09:48:11.983Z,99208.60
2023-05-15T09:50:46.115Z,99207.60
2023-05-15T09:53:21.381Z,99205.40
2023-05-15T09:55:56.593Z,99198.00
2023-05-15T09:58:29.893Z,99200.00
2023-05-15T10:01:04.365Z,99202.00
2023-05-15T10:03:37.937Z,99191.20
2023-05-15T10:06:18.958Z,99175.00
2023-05-15T10:08:57.747Z,99164.40
2023-05-15T10:11:33.671Z,99168.40
2023-05-15T10:14:08.714Z,99176.40
2023-05-15T10:16:43.429Z,99177.20
2023-05-15T10:19:20.857Z,99185.00
2023-05-15T10:21:57.697Z,99187.00
2023-05-15T10:24:34.367Z,99193.40
2023-05-15T10:27:10.450Z,99203.80
2023-05-15T10:29:45.075Z,99197.00
2023-05-15T10:32:19.913Z,99191.20
2023-05-15T10:34:55.343Z,99193.40
2023-05-15T10:37:30.312Z,99196.00
2023-05-15T10:40:05.093Z,99194.40
2023-05-15T10:42:47.328Z,99192.40
2023-05-15T10:45:20.923Z,99189.40
2023-05-15T10:47:55.997Z,99192.40
2023-05-15T10:50:29.800Z,99195.80
2023-05-15T10:53:04.222Z,99188.20
2023-05-15T10:55:38.815Z,99183.00
2023-05-15T10:58:14.307Z,99182.60
2023-05-15T11:00:48.266Z,99193.60
2023-05-15T11:03:49.103Z,99205.00
2023-05-15T11:06:32.520Z,99200.20
2023-05-15T11:09:40.366Z,99193.60
2023-05-15T11:12:14.730Z,99188.00
2023-05-15T11:15:22.224Z,99182.40
2023-05-15T11:18:09.287Z,99176.60
2023-05-15T11:21:09.790Z,99171.60
2023-05-15T11:23:49.823Z,99168.60
2023-05-15T11:30:18.139Z,99154.80
2023-05-15T11:32:58.563Z,99157.40
2023-05-15T11:35:35.686Z,99149.60
2023-05-15T11:38:16.030Z,99151.00
2023-05-15T11:40:52.693Z,99149.40
2023-05-15T11:43:28.901Z,99153.60
2023-05-15T11:46:09.746Z,99154.80
2023-05-15T11:48:47.731Z,99160.00
2023-05-15T11:51:23.227Z,99146.60
2023-05-15T11:53:59.197Z,99155.80
2023-05-15T11:56:32.551Z,99161.20
2023-05-15T11:59:05.864Z,99166.40
2023-05-15T12:01:47.549Z,99152.80
2023-05-15T12:04:22.146Z,99151.20
2023-05-15T12:06:55.664Z,99152.60
2023-05-15T12:09:29.265Z,99159.80
2023-05-15T12:12:03.882Z,99158.60
2023-05-15T12:14:38.153Z,99163.20
2023-05-15T12:17:11.344Z,99164.00
2023-05-15T12:19:45.303Z,99155.80
2023-05-15T12:22:19.219Z,99148.60
2023-05-15T12:24:52.515Z,99146.40
2023-05-15T12:27:26.534Z,99136.00
2023-05-15T12:30:00.356Z,99140.20
2023-05-15T12:32:37.423Z,99137.40
2023-05-15T12:35:12.972Z,99135.00
2023-05-15T12:37:46.678Z,99135.20
2023-05-15T12:40:24.861Z,99145.60
2023-05-15T12:42:58.674Z,99148.60
2023-05-15T12:45:35.337Z,99146.60
2023-05-15T12:48:09.204Z,99139.20
2023-05-15T12:50:45.172Z,99143.40
2023-05-15T12:53:19.525Z,99137.40
2023-05-15T12:55:53.645Z,99134.20
2023-05-15T12:58:27.042Z,99132.20
2023-05-15T13:01:02.959Z,99136.40
2023-05-15T13:03:36.711Z,99140.60
2023-05-15T13:06:12.348Z,99142.00
2023-05-15T13:08:47.754Z,99148.40
2023-05-15T13:11:22.534Z,99146.60
2023-05-15T13:13:57.050Z,99140.80
2023-05-15T13:16:33.097Z,99145.00
2023-05-15T13:19:07.369Z,99146.20
2023-05-15T13:21:41.011Z,99154.20
2023-05-15T13:24:15.361Z,99157.80
2023-05-15T13:26:48.491Z,99156.60
2023-05-15T13:29:21.719Z,99154.60
2023-05-15T13:31:55.025Z,99151.00
2023-05-15T13:34:28.609Z,99153.80
2023-05-15T13:37:02.421Z,99155.60
2023-05-15T13:39:35.730Z,99151.20
2023-05-15T13:42:09.430Z,99158.80
2023-05-15T13:44:42.772Z,99155.40
2023-05-15T13:47:16.000Z,99157.40
2023-05-15T13:49:49.341Z,99164.40
2023-05-15T13:52:22.596Z,99166.80
2023-05-15T13:54:56.568Z,99166.20
2023-05-15T13:57:30.310Z,99169.40
2023-05-15T14:00:05.509Z,99172.40
2023-05-15T14:02:39.334Z,99174.80
2023-05-15T14:05:14.868Z,99174.80
2023-05-15T14:07:48.212Z,99180.20
2023-05-15T14:10:21.594Z,99182.00
2023-05-15T14:12:54.885Z,99180.00
2023-05-15T14:15:28.746Z,99181.40
2023-05-15T14:18:01.964Z,99185.20
2023-05-15T14:20:35.319Z,99188.20
2023-05-15T14:23:08.678Z,99191.60
2023-05-15T14:25:42.326Z,99193.00
2023-05-15T14:28:15.598Z,99193.20
2023-05-15T14:30:48.982Z,99190.40
2023-05-15T14:33:22.264Z,99186.00
2023-05-15T14:35:55.660Z,99182.20
2023-05-15T14:38:28.850Z,99178.60
2023-05-15T14:41:02.249Z,99181.40
2023-05-15T14:43:35.446Z,99190.20
2023-05-15T14:46:11.242Z,99192.20
2023-05-15T14:48:45.417Z,99192.20
2023-05-15T14:51:19.952Z,99196.20
2023-05-15T14:53:53.470Z,99197.00
2023-05-15T14:56:26.930Z,99204.80
2023-05-15T14:59:00.222Z,99213.20
2023-05-15T15:01:33.787Z,99208.60
2023-05-15T15:04:07.537Z,99210.20
2023-05-15T15:06:41.453Z,99208.40
2023-05-15T15:09:14.725Z,99215.80
2023-05-15T15:11:48.517Z,99220.60
2023-05-15T15:14:21.825Z,99214.20
2023-05-15T15:16:54.978Z,99216.00
2023-05-15T15:19:28.435Z,99219.40
2023-05-15T15:22:01.775Z,99214.00
2023-05-15T15:24:34.953Z,99217.80
2023-05-15T15:27:08.503Z,99229.00
2023-05-15T15:29:41.716Z,99224.20
2023-05-15T15:32:15.754Z,99216.60
2023-05-15T15:34:49.051Z,99216.20
2023-05-15T15:37:35.775Z,99213.20
2023-05-15T15:40:12.122Z,99212.80
2023-05-15T15:42:45.363Z,99214.40
2023-05-15T15:45:18.982Z,99215.20
2023-05-15T15:47:52.170Z,99214.60
2023-05-15T15:50:25.682Z,99213.00
2023-05-15T15:52:59.172Z,99204.00
2023-05-15T15:55:32.491Z,99223.80
2023-05-15T15:58:05.748Z,99221.20
2023-05-15T16:00:39.778Z,99228.00
2023-05-15T16:03:13.132Z,99228.20
2023-05-15T16:05:46.589Z,99218.80
2023-05-15T16:08:19.802Z,99222.80
2023-05-15T16:10:53.713Z,99223.60
2023-05-15T16:13:26.858Z,99227.60
2023-05-15T16:16:00.178Z,99221.40
2023-05-15T16:18:33.514Z,99224.60
2023-05-15T16:21:06.929Z,99222.60
2023-05-15T16:23:41.674Z,99224.00
2023-05-15T16:26:15.151Z,99217.80
2023-05-15T16:28:48.363Z,99215.60
2023-05-15T16:31:21.691Z,99218.40
2023-05-15T16:33:54.960Z,99219.60
2023-05-15T16:36:28.357Z,99224.20
2023-05-15T16:39:03.119Z,99220.60
2023-05-15T16:41:36.388Z,99217.40
2023-05-15T16:44:11.230Z,99218.00
2023-05-15T16:46:44.657Z,99212.80
2023-05-15T16:49:18.094Z,99223.20
2023-05-15T16:51:51.182Z,99228.80
2023-05-15T16:54:24.365Z,99232.40
2023-05-15T16:56:57.540Z,99234.40
2023-05-15T16:59:30.667Z,99241.00
2023-05-15T17:02:04.153Z,99244.80
2023-05-15T17:04:37.845Z,99251.00
2023-05-15T17:07:11.242Z,99256.40
2023-05-15T17:09:44.625Z,99260.40
2023-05-15T17:12:17.933Z,99265.20
2023-05-15T17:14:51.108Z,99265.00
2023-05-15T17:17:25.696Z,99265.80
2023-05-15T17:22:45.291Z,99259.40
2023-05-15T17:25:18.454Z,99262.80
2023-05-15T17:27:51.652Z,99266.80
2023-05-15T17:30:25.671Z,99263.60
2023-05-15T17:33:00.375Z,99270.40
2023-05-15T17:35:34.268Z,99270.60
2023-05-15T17:38:08.892Z,99275.00
2023-05-15T17:40:42.162Z,99271.80
2023-05-15T17:43:16.231Z,99268.80
2023-05-15T17:45:49.521Z,99275.00
2023-05-15T17:48:23.005Z,99274.80
2023-05-15T17:50:56.354Z,99270.20
2023-05-15T17:53:29.606Z,99272.80
2023-05-15T17:56:03.607Z,99281.20
2023-05-15T17:58:36.922Z,99287.40
2023-05-15T18:01:10.214Z,99283.60
2023-05-15T18:03:43.484Z,99285.20
2023-05-15T18:06:16.881Z,99289.20
2023-05-15T18:08:51.608Z,99296.80
2023-05-15T18:16:46.942Z,99317.80
2023-05-15T18:19:20.255Z,99318.60
2023-05-15T18:21:53.633Z,99317.80
2023-05-15T18:24:28.671Z,99320.80
2023-05-15T21:07:11.727Z,99440.20
2023-05-15T21:11:45.870Z,99436.60
2023-05-15T21:15:58.498Z,99436.00
2023-05-15T21:18:32.032Z,99438.80
2023-05-15T21:21:07.264Z,99437.00
2023-05-15T21:23:40.706Z,99436.20
2023-05-15T21:26:14.289Z,99435.40
2023-05-15T21:28:47.751Z,99435.60
2023-05-15T21:31:21.226Z,99437.60
2023-05-15T21:40:45.095Z,99444.00
2023-05-15T21:46:22.885Z,99447.80
2023-05-15T21:48:57.703Z,99442.80
2023-05-15T21:51:32.151Z,99450.40
2023-05-15T21:54:06.407Z,99452.20
2023-05-15T21:56:41.305Z,99453.00
2023-05-15T21:59:15.773Z,99452.80
2023-05-15T22:01:53.247Z,99457.00
2023-05-15T22:04:28.969Z,99464.80
2023-05-15T22:07:09.079Z,99464.00
2023-05-15T22:09:46.444Z,99463.60
2023-05-15T22:12:20.461Z,99463.40
2023-05-15T22:14:59.438Z,99470.80
2023-05-15T22:17:42.010Z,99471.00
2023-05-15T22:20:19.529Z,99477.20
2023-05-15T22:22:54.080Z,99477.20
2023-05-15T22:25:29.134Z,99478.40
2023-05-15T22:28:03.844Z,99483.00
2023-05-15T22:30:43.051Z,99485.60
2023-05-15T22:33:25.056Z,99489.60
2023-05-15T22:36:03.335Z,99485.20
2023-05-15T22:39:07.607Z,99481.00
2023-05-15T22:41:48.552Z,99480.80
2023-05-15T22:44:42.971Z,99485.80
2023-05-15T22:47:20.221Z,99480.60
2023-05-15T22:50:11.044Z,99487.00
2023-05-15T22:52:45.479Z,99487.80
2023-05-15T22:55:20.317Z,99490.00
2023-05-15T22:57:57.768Z,99492.20
2023-05-15T23:00:37.383Z,99492.60
2023-05-15T23:03:17.205Z,99494.60
2023-05-15T23:05:53.528Z,99496.60
2023-05-15T23:08:27.862Z,99495.20
2023-05-15T23:11:13.810Z,99496.00
2023-05-15T23:13:49.859Z,99499.80
2023-05-15T23:16:36.484Z,99497.20
2023-05-15T23:19:11.570Z,99502.40
2023-05-15T23:21:47.666Z,99505.20
2023-05-15T23:24:22.658Z,99504.80
2023-05-15T23:26:59.977Z,99506.40
2023-05-15T23:29:38.586Z,99506.00
2023-05-15T23:32:15.138Z,99505.20
2023-05-15T23:34:52.900Z,99504.40
2023-05-15T23:37:32.241Z,99506.00
2023-05-15T23:40:12.773Z,99503.60
2023-05-15T23:42:51.063Z,99513.40
